Terminal Aerodrome Forecast
Issued by NWS

Home | Current Version | Previous Version | Text Only | Print | Product List | Glossary On
Versions: 1 2 3 4 5 6 7 8 9 10 11 12
150
FTUS45 KRIW 290520
TAFBPI
TAF
KBPI 290520Z 2906/3006 34006KT P6SM SCT200
     FM292200 34010KT P6SM SCT050 BKN140
     FM300400 VRB06KT P6SM SCT050 BKN080=

USA.gov is the U.S. government's official web portal to all federal, state and local government web resources and services.